Terminal Aerodrome Forecast
Issued by NWS

Home | Current Version | Previous Version | Text Only | Print | Product List | Glossary Off
Versions: 1 2 3 4 5 6 7 8 9 10 11 12 13 14 15 16 17 18

000
FTUS42 KMHX 220147 AAA
TAFPGV
TAF AMD
KPGV 220147Z 2202/2224 22007KT P6SM SCT050 SCT250
      TEMPO 2202/2203 5SM SHRA BKN040
     FM220900 24009KT P6SM SCT050 BKN090
     FM221900 28008KT P6SM VCSH SCT040 BKN070
      AMD LTD TO CLD VIS AND WIND=

USA.gov is the U.S. government's official web portal to all federal, state and local government web resources and services.